sensor_id;sensor_type;location;lat;lon;timestamp;P1;durP1;ratioP1;P2;durP2;ratioP2
20034;SDS011;10178;48.034;9.800;2023-11-22T00:02:18;4.50;;;3.03;;
20034;SDS011;10178;48.034;9.800;2023-11-22T00:04:44;4.25;;;3.20;;
20034;SDS011;10178;48.034;9.800;2023-11-22T00:07:09;5.20;;;3.38;;
20034;SDS011;10178;48.034;9.800;2023-11-22T00:09:35;4.18;;;3.38;;
20034;SDS011;10178;48.034;9.800;2023-11-22T00:12:01;5.60;;;4.28;;
20034;SDS011;10178;48.034;9.800;2023-11-22T00:14:27;4.72;;;3.78;;
20034;SDS011;10178;48.034;9.800;2023-11-22T00:16:53;4.20;;;3.80;;
20034;SDS011;10178;48.034;9.800;2023-11-22T00:19:18;4.22;;;3.40;;
20034;SDS011;10178;48.034;9.800;2023-11-22T00:21:47;4.65;;;3.58;;
20034;SDS011;10178;48.034;9.800;2023-11-22T00:24:14;3.55;;;3.22;;
20034;SDS011;10178;48.034;9.800;2023-11-22T00:26:39;4.93;;;3.60;;
20034;SDS011;10178;48.034;9.800;2023-11-22T00:29:06;3.65;;;3.33;;
20034;SDS011;10178;48.034;9.800;2023-11-22T00:31:32;4.50;;;3.65;;
20034;SDS011;10178;48.034;9.800;2023-11-22T00:33:57;4.57;;;3.60;;
20034;SDS011;10178;48.034;9.800;2023-11-22T00:36:23;4.53;;;3.75;;
20034;SDS011;10178;48.034;9.800;2023-11-22T00:38:49;4.90;;;4.03;;
20034;SDS011;10178;48.034;9.800;2023-11-22T00:41:14;6.50;;;4.03;;
20034;SDS011;10178;48.034;9.800;2023-11-22T00:43:40;4.43;;;3.95;;
20034;SDS011;10178;48.034;9.800;2023-11-22T00:46:06;5.18;;;4.22;;
20034;SDS011;10178;48.034;9.800;2023-11-22T00:48:32;5.88;;;4.28;;
20034;SDS011;10178;48.034;9.800;2023-11-22T00:50:57;5.07;;;3.97;;
20034;SDS011;10178;48.034;9.800;2023-11-22T00:53:23;4.47;;;4.07;;
20034;SDS011;10178;48.034;9.800;2023-11-22T00:55:49;7.15;;;4.13;;
20034;SDS011;10178;48.034;9.800;2023-11-22T00:58:15;5.18;;;3.95;;
20034;SDS011;10178;48.034;9.800;2023-11-22T01:00:41;5.93;;;4.38;;
20034;SDS011;10178;48.034;9.800;2023-11-22T01:03:06;5.85;;;4.20;;
20034;SDS011;10178;48.034;9.800;2023-11-22T01:05:36;5.30;;;4.25;;
20034;SDS011;10178;48.034;9.800;2023-11-22T01:08:02;8.65;;;4.75;;
20034;SDS011;10178;48.034;9.800;2023-11-22T01:10:28;6.05;;;4.75;;
20034;SDS011;10178;48.034;9.800;2023-11-22T01:12:54;4.82;;;4.13;;
20034;SDS011;10178;48.034;9.800;2023-11-22T01:15:20;6.32;;;4.55;;
20034;SDS011;10178;48.034;9.800;2023-11-22T01:17:46;6.05;;;4.43;;
20034;SDS011;10178;48.034;9.800;2023-11-22T01:20:12;8.40;;;4.70;;
20034;SDS011;10178;48.034;9.800;2023-11-22T01:22:39;6.85;;;4.57;;
20034;SDS011;10178;48.034;9.800;2023-11-22T01:25:05;7.45;;;4.63;;
20034;SDS011;10178;48.034;9.800;2023-11-22T01:27:31;7.35;;;4.60;;
20034;SDS011;10178;48.034;9.800;2023-11-22T01:29:56;6.05;;;4.70;;
20034;SDS011;10178;48.034;9.800;2023-11-22T01:32:22;5.63;;;4.60;;
20034;SDS011;10178;48.034;9.800;2023-11-22T01:34:47;7.28;;;4.82;;
20034;SDS011;10178;48.034;9.800;2023-11-22T01:37:13;7.00;;;4.68;;
20034;SDS011;10178;48.034;9.800;2023-11-22T01:39:39;5.07;;;4.20;;
20034;SDS011;10178;48.034;9.800;2023-11-22T01:42:06;5.30;;;4.53;;
20034;SDS011;10178;48.034;9.800;2023-11-22T01:44:32;6.35;;;4.85;;
20034;SDS011;10178;48.034;9.800;2023-11-22T01:46:58;4.93;;;4.43;;
20034;SDS011;10178;48.034;9.800;2023-11-22T01:49:24;6.63;;;5.10;;
20034;SDS011;10178;48.034;9.800;2023-11-22T01:51:49;9.45;;;4.80;;
20034;SDS011;10178;48.034;9.800;2023-11-22T01:54:15;5.05;;;4.32;;
20034;SDS011;10178;48.034;9.800;2023-11-22T01:56:43;6.18;;;4.63;;
20034;SDS011;10178;48.034;9.800;2023-11-22T01:59:10;6.90;;;4.82;;
20034;SDS011;10178;48.034;9.800;2023-11-22T02:01:36;5.85;;;4.68;;
20034;SDS011;10178;48.034;9.800;2023-11-22T02:04:02;6.95;;;4.65;;
20034;SDS011;10178;48.034;9.800;2023-11-22T02:06:28;7.60;;;4.70;;
20034;SDS011;10178;48.034;9.800;2023-11-22T02:08:56;6.35;;;5.20;;
20034;SDS011;10178;48.034;9.800;2023-11-22T02:11:22;7.70;;;4.97;;
20034;SDS011;10178;48.034;9.800;2023-11-22T02:13:49;7.40;;;4.75;;
20034;SDS011;10178;48.034;9.800;2023-11-22T02:16:15;6.70;;;5.00;;
20034;SDS011;10178;48.034;9.800;2023-11-22T02:18:43;9.05;;;5.57;;
20034;SDS011;10178;48.034;9.800;2023-11-22T02:21:10;5.97;;;4.60;;
20034;SDS011;10178;48.034;9.800;2023-11-22T02:23:36;6.63;;;4.90;;
20034;SDS011;10178;48.034;9.800;2023-11-22T02:26:02;7.68;;;5.57;;
20034;SDS011;10178;48.034;9.800;2023-11-22T02:28:27;5.85;;;5.05;;
20034;SDS011;10178;48.034;9.800;2023-11-22T02:30:53;8.18;;;5.63;;
20034;SDS011;10178;48.034;9.800;2023-11-22T02:33:19;6.07;;;4.70;;
20034;SDS011;10178;48.034;9.800;2023-11-22T02:35:45;6.38;;;5.13;;
20034;SDS011;10178;48.034;9.800;2023-11-22T02:38:11;7.10;;;4.68;;
20034;SDS011;10178;48.034;9.800;2023-11-22T02:40:36;9.02;;;4.95;;
20034;SDS011;10178;48.034;9.800;2023-11-22T02:43:02;6.57;;;5.20;;
20034;SDS011;10178;48.034;9.800;2023-11-22T02:45:32;8.25;;;5.68;;
20034;SDS011;10178;48.034;9.800;2023-11-22T02:47:58;8.52;;;5.22;;
20034;SDS011;10178;48.034;9.800;2023-11-22T02:50:26;6.82;;;5.18;;
20034;SDS011;10178;48.034;9.800;2023-11-22T02:52:52;8.73;;;5.50;;
20034;SDS011;10178;48.034;9.800;2023-11-22T02:55:18;6.53;;;5.15;;
20034;SDS011;10178;48.034;9.800;2023-11-22T02:57:44;7.78;;;5.68;;
20034;SDS011;10178;48.034;9.800;2023-11-22T03:00:10;6.55;;;5.55;;
20034;SDS011;10178;48.034;9.800;2023-11-22T03:02:39;7.30;;;5.63;;
20034;SDS011;10178;48.034;9.800;2023-11-22T03:05:10;9.57;;;5.53;;
20034;SDS011;10178;48.034;9.800;2023-11-22T03:07:36;7.63;;;5.60;;
20034;SDS011;10178;48.034;9.800;2023-11-22T03:10:03;9.82;;;6.82;;
20034;SDS011;10178;48.034;9.800;2023-11-22T03:12:29;9.35;;;6.38;;
20034;SDS011;10178;48.034;9.800;2023-11-22T03:14:54;8.43;;;6.28;;
20034;SDS011;10178;48.034;9.800;2023-11-22T03:17:23;7.95;;;5.72;;
20034;SDS011;10178;48.034;9.800;2023-11-22T03:19:49;8.88;;;6.13;;
20034;SDS011;10178;48.034;9.800;2023-11-22T03:22:15;8.15;;;6.07;;
20034;SDS011;10178;48.034;9.800;2023-11-22T03:24:40;7.35;;;5.85;;
20034;SDS011;10178;48.034;9.800;2023-11-22T03:27:07;8.40;;;5.90;;
20034;SDS011;10178;48.034;9.800;2023-11-22T03:29:32;8.20;;;6.13;;
20034;SDS011;10178;48.034;9.800;2023-11-22T03:31:59;7.65;;;5.78;;
20034;SDS011;10178;48.034;9.800;2023-11-22T03:34:25;6.57;;;5.15;;
20034;SDS011;10178;48.034;9.800;2023-11-22T03:36:51;9.27;;;4.95;;
20034;SDS011;10178;48.034;9.800;2023-11-22T03:39:17;7.53;;;4.85;;
20034;SDS011;10178;48.034;9.800;2023-11-22T03:41:42;6.43;;;5.32;;
20034;SDS011;10178;48.034;9.800;2023-11-22T03:44:08;5.93;;;4.50;;
20034;SDS011;10178;48.034;9.800;2023-11-22T03:46:37;4.72;;;3.70;;
20034;SDS011;10178;48.034;9.800;2023-11-22T03:49:04;5.65;;;3.95;;
20034;SDS011;10178;48.034;9.800;2023-11-22T03:51:33;4.65;;;4.00;;
20034;SDS011;10178;48.034;9.800;2023-11-22T03:54:03;6.97;;;4.00;;
20034;SDS011;10178;48.034;9.800;2023-11-22T03:56:29;4.60;;;3.40;;
20034;SDS011;10178;48.034;9.800;2023-11-22T03:58:55;4.20;;;3.80;;
20034;SDS011;10178;48.034;9.800;2023-11-22T04:01:21;4.38;;;3.55;;
20034;SDS011;10178;48.034;9.800;2023-11-22T04:03:47;4.72;;;3.55;;
20034;SDS011;10178;48.034;9.800;2023-11-22T04:06:16;3.85;;;3.17;;
20034;SDS011;10178;48.034;9.800;2023-11-22T04:08:44;3.70;;;3.17;;
20034;SDS011;10178;48.034;9.800;2023-11-22T04:11:11;4.88;;;3.40;;
20034;SDS011;10178;48.034;9.800;2023-11-22T04:13:40;3.90;;;3.20;;
20034;SDS011;10178;48.034;9.800;2023-11-22T04:16:06;3.08;;;2.80;;
20034;SDS011;10178;48.034;9.800;2023-11-22T04:18:38;2.83;;;2.53;;
20034;SDS011;10178;48.034;9.800;2023-11-22T04:21:04;4.03;;;2.85;;
20034;SDS011;10178;48.034;9.800;2023-11-22T04:23:33;6.05;;;2.67;;
20034;SDS011;10178;48.034;9.800;2023-11-22T04:25:59;3.25;;;2.13;;
20034;SDS011;10178;48.034;9.800;2023-11-22T04:28:26;2.53;;;2.22;;
20034;SDS011;10178;48.034;9.800;2023-11-22T04:30:52;2.33;;;2.13;;
20034;SDS011;10178;48.034;9.800;2023-11-22T04:33:18;2.33;;;2.13;;
20034;SDS011;10178;48.034;9.800;2023-11-22T04:35:44;2.72;;;2.22;;
20034;SDS011;10178;48.034;9.800;2023-11-22T04:38:11;3.50;;;2.28;;
20034;SDS011;10178;48.034;9.800;2023-11-22T04:40:36;2.17;;;1.98;;
20034;SDS011;10178;48.034;9.800;2023-11-22T04:43:02;1.92;;;1.83;;
20034;SDS011;10178;48.034;9.800;2023-11-22T04:45:28;2.30;;;1.83;;
20034;SDS011;10178;48.034;9.800;2023-11-22T04:47:53;1.90;;;1.77;;
20034;SDS011;10178;48.034;9.800;2023-11-22T04:50:22;2.00;;;1.80;;
20034;SDS011;10178;48.034;9.800;2023-11-22T04:52:49;1.73;;;1.63;;
20034;SDS011;10178;48.034;9.800;2023-11-22T04:55:15;1.50;;;1.40;;
20034;SDS011;10178;48.034;9.800;2023-11-22T04:57:40;1.52;;;1.38;;
20034;SDS011;10178;48.034;9.800;2023-11-22T05:00:06;1.58;;;1.48;;
20034;SDS011;10178;48.034;9.800;2023-11-22T05:02:33;1.92;;;1.80;;
20034;SDS011;10178;48.034;9.800;2023-11-22T05:04:59;2.20;;;2.00;;
20034;SDS011;10178;48.034;9.800;2023-11-22T05:07:25;2.05;;;1.73;;
20034;SDS011;10178;48.034;9.800;2023-11-22T05:09:51;1.60;;;1.50;;
20034;SDS011;10178;48.034;9.800;2023-11-22T05:12:16;1.80;;;1.70;;
20034;SDS011;10178;48.034;9.800;2023-11-22T05:14:42;2.00;;;1.73;;
20034;SDS011;10178;48.034;9.800;2023-11-22T05:17:10;2.00;;;1.80;;
20034;SDS011;10178;48.034;9.800;2023-11-22T05:19:37;1.80;;;1.70;;
20034;SDS011;10178;48.034;9.800;2023-11-22T05:22:03;1.88;;;1.73;;
20034;SDS011;10178;48.034;9.800;2023-11-22T05:24:28;1.92;;;1.75;;
20034;SDS011;10178;48.034;9.800;2023-11-22T05:26:54;2.08;;;1.85;;
20034;SDS011;10178;48.034;9.800;2023-11-22T05:29:20;3.03;;;2.73;;
20034;SDS011;10178;48.034;9.800;2023-11-22T05:31:45;2.30;;;2.10;;
20034;SDS011;10178;48.034;9.800;2023-11-22T05:34:11;2.40;;;2.05;;
20034;SDS011;10178;48.034;9.800;2023-11-22T05:36:36;2.80;;;2.40;;
20034;SDS011;10178;48.034;9.800;2023-11-22T05:39:02;2.33;;;2.13;;
20034;SDS011;10178;48.034;9.800;2023-11-22T05:41:29;3.70;;;2.63;;
20034;SDS011;10178;48.034;9.800;2023-11-22T05:43:55;2.22;;;2.03;;
20034;SDS011;10178;48.034;9.800;2023-11-22T05:46:21;2.50;;;2.15;;
20034;SDS011;10178;48.034;9.800;2023-11-22T05:48:49;2.63;;;1.97;;
20034;SDS011;10178;48.034;9.800;2023-11-22T05:51:18;2.53;;;2.33;;
20034;SDS011;10178;48.034;9.800;2023-11-22T05:53:43;3.07;;;2.73;;
20034;SDS011;10178;48.034;9.800;2023-11-22T05:56:09;2.63;;;2.42;;
20034;SDS011;10178;48.034;9.800;2023-11-22T05:58:35;4.37;;;2.87;;
20034;SDS011;10178;48.034;9.800;2023-11-22T06:01:10;2.72;;;2.45;;
20034;SDS011;10178;48.034;9.800;2023-11-22T06:03:39;2.40;;;2.20;;
20034;SDS011;10178;48.034;9.800;2023-11-22T06:06:05;2.83;;;2.55;;
20034;SDS011;10178;48.034;9.800;2023-11-22T06:08:31;2.90;;;2.53;;
20034;SDS011;10178;48.034;9.800;2023-11-22T06:10:57;3.15;;;2.47;;
20034;SDS011;10178;48.034;9.800;2023-11-22T06:13:24;5.03;;;2.90;;
20034;SDS011;10178;48.034;9.800;2023-11-22T06:15:50;3.60;;;2.95;;
20034;SDS011;10178;48.034;9.800;2023-11-22T06:18:16;3.28;;;2.70;;
20034;SDS011;10178;48.034;9.800;2023-11-22T06:20:41;3.97;;;2.70;;
20034;SDS011;10178;48.034;9.800;2023-11-22T06:23:08;3.53;;;2.78;;
20034;SDS011;10178;48.034;9.800;2023-11-22T06:25:34;3.10;;;2.75;;
20034;SDS011;10178;48.034;9.800;2023-11-22T06:28:01;3.05;;;2.75;;
20034;SDS011;10178;48.034;9.800;2023-11-22T06:30:27;8.43;;;5.47;;
20034;SDS011;10178;48.034;9.800;2023-11-22T06:32:53;4.53;;;3.28;;
20034;SDS011;10178;48.034;9.800;2023-11-22T06:35:21;4.20;;;3.43;;
20034;SDS011;10178;48.034;9.800;2023-11-22T06:37:47;3.70;;;3.35;;
20034;SDS011;10178;48.034;9.800;2023-11-22T06:40:12;4.03;;;3.20;;
20034;SDS011;10178;48.034;9.800;2023-11-22T06:42:39;5.03;;;4.00;;
20034;SDS011;10178;48.034;9.800;2023-11-22T06:45:05;5.47;;;4.00;;
20034;SDS011;10178;48.034;9.800;2023-11-22T06:47:34;10.85;;;5.18;;
20034;SDS011;10178;48.034;9.800;2023-11-22T06:50:07;5.40;;;4.10;;
20034;SDS011;10178;48.034;9.800;2023-11-22T06:52:36;4.77;;;4.20;;
20034;SDS011;10178;48.034;9.800;2023-11-22T06:55:03;5.65;;;4.15;;
20034;SDS011;10178;48.034;9.800;2023-11-22T06:57:36;7.38;;;4.82;;
20034;SDS011;10178;48.034;9.800;2023-11-22T07:00:02;6.93;;;4.57;;
20034;SDS011;10178;48.034;9.800;2023-11-22T07:02:34;5.18;;;4.45;;
20034;SDS011;10178;48.034;9.800;2023-11-22T07:05:03;5.80;;;4.63;;
20034;SDS011;10178;48.034;9.800;2023-11-22T07:07:36;6.82;;;4.80;;
20034;SDS011;10178;48.034;9.800;2023-11-22T07:10:02;6.53;;;4.43;;
20034;SDS011;10178;48.034;9.800;2023-11-22T07:12:30;6.90;;;5.20;;
20034;SDS011;10178;48.034;9.800;2023-11-22T07:14:56;8.02;;;5.35;;
20034;SDS011;10178;48.034;9.800;2023-11-22T07:17:23;7.18;;;4.90;;
20034;SDS011;10178;48.034;9.800;2023-11-22T07:19:48;7.73;;;5.67;;
20034;SDS011;10178;48.034;9.800;2023-11-22T07:22:14;8.43;;;6.17;;
20034;SDS011;10178;48.034;9.800;2023-11-22T07:24:45;8.23;;;5.88;;
20034;SDS011;10178;48.034;9.800;2023-11-22T07:27:12;9.87;;;6.50;;
20034;SDS011;10178;48.034;9.800;2023-11-22T07:29:42;8.40;;;6.27;;
20034;SDS011;10178;48.034;9.800;2023-11-22T07:32:08;9.07;;;6.30;;
20034;SDS011;10178;48.034;9.800;2023-11-22T07:34:35;9.23;;;6.88;;
20034;SDS011;10178;48.034;9.800;2023-11-22T07:37:01;8.83;;;6.43;;
20034;SDS011;10178;48.034;9.800;2023-11-22T07:39:27;9.27;;;6.23;;
20034;SDS011;10178;48.034;9.800;2023-11-22T07:41:54;10.88;;;6.65;;
20034;SDS011;10178;48.034;9.800;2023-11-22T07:44:23;9.13;;;6.13;;
20034;SDS011;10178;48.034;9.800;2023-11-22T07:46:49;8.30;;;5.90;;
20034;SDS011;10178;48.034;9.800;2023-11-22T07:49:16;9.48;;;6.35;;
20034;SDS011;10178;48.034;9.800;2023-11-22T07:51:43;8.03;;;6.13;;
20034;SDS011;10178;48.034;9.800;2023-11-22T07:54:10;8.68;;;6.15;;
20034;SDS011;10178;48.034;9.800;2023-11-22T07:56:40;10.23;;;6.85;;
20034;SDS011;10178;48.034;9.800;2023-11-22T07:59:09;9.60;;;6.37;;
20034;SDS011;10178;48.034;9.800;2023-11-22T08:01:38;10.18;;;6.43;;
20034;SDS011;10178;48.034;9.800;2023-11-22T08:04:12;7.57;;;5.63;;
20034;SDS011;10178;48.034;9.800;2023-11-22T08:06:38;8.10;;;5.77;;
20034;SDS011;10178;48.034;9.800;2023-11-22T08:09:03;8.55;;;5.80;;
20034;SDS011;10178;48.034;9.800;2023-11-22T08:11:30;7.07;;;5.53;;
20034;SDS011;10178;48.034;9.800;2023-11-22T08:13:56;7.47;;;5.77;;
20034;SDS011;10178;48.034;9.800;2023-11-22T08:16:24;8.50;;;5.80;;
20034;SDS011;10178;48.034;9.800;2023-11-22T08:18:50;8.30;;;6.10;;
20034;SDS011;10178;48.034;9.800;2023-11-22T08:21:16;9.20;;;6.32;;
20034;SDS011;10178;48.034;9.800;2023-11-22T08:23:43;8.87;;;6.27;;
20034;SDS011;10178;48.034;9.800;2023-11-22T08:26:11;7.67;;;5.90;;
20034;SDS011;10178;48.034;9.800;2023-11-22T08:28:37;8.02;;;5.68;;
20034;SDS011;10178;48.034;9.800;2023-11-22T08:31:03;7.35;;;5.30;;
20034;SDS011;10178;48.034;9.800;2023-11-22T08:33:35;6.13;;;5.13;;
20034;SDS011;10178;48.034;9.800;2023-11-22T08:36:01;8.77;;;6.13;;
20034;SDS011;10178;48.034;9.800;2023-11-22T08:38:29;7.47;;;5.65;;
20034;SDS011;10178;48.034;9.800;2023-11-22T08:40:58;7.32;;;5.45;;
20034;SDS011;10178;48.034;9.800;2023-11-22T08:43:33;7.90;;;5.60;;
20034;SDS011;10178;48.034;9.800;2023-11-22T08:45:59;6.15;;;4.60;;
20034;SDS011;10178;48.034;9.800;2023-11-22T08:48:29;9.20;;;5.07;;
20034;SDS011;10178;48.034;9.800;2023-11-22T08:50:55;6.93;;;4.78;;
20034;SDS011;10178;48.034;9.800;2023-11-22T08:53:22;8.98;;;5.22;;
20034;SDS011;10178;48.034;9.800;2023-11-22T08:55:48;7.37;;;5.03;;
20034;SDS011;10178;48.034;9.800;2023-11-22T08:58:13;7.50;;;5.00;;
20034;SDS011;10178;48.034;9.800;2023-11-22T09:00:39;7.00;;;5.05;;
20034;SDS011;10178;48.034;9.800;2023-11-22T09:03:07;8.27;;;5.10;;
20034;SDS011;10178;48.034;9.800;2023-11-22T09:05:33;9.25;;;4.88;;
20034;SDS011;10178;48.034;9.800;2023-11-22T09:07:59;9.05;;;5.25;;
20034;SDS011;10178;48.034;9.800;2023-11-22T09:10:25;5.17;;;3.93;;
20034;SDS011;10178;48.034;9.800;2023-11-22T09:12:51;6.37;;;4.47;;
20034;SDS011;10178;48.034;9.800;2023-11-22T09:15:17;6.47;;;4.67;;
20034;SDS011;10178;48.034;9.800;2023-11-22T09:17:49;8.85;;;4.63;;
20034;SDS011;10178;48.034;9.800;2023-11-22T09:20:17;6.18;;;4.40;;
20034;SDS011;10178;48.034;9.800;2023-11-22T09:22:46;6.17;;;4.20;;
20034;SDS011;10178;48.034;9.800;2023-11-22T09:25:17;4.93;;;4.20;;
20034;SDS011;10178;48.034;9.800;2023-11-22T09:27:45;7.80;;;4.80;;
20034;SDS011;10178;48.034;9.800;2023-11-22T09:30:12;4.53;;;3.33;;
20034;SDS011;10178;48.034;9.800;2023-11-22T09:32:45;7.57;;;4.50;;
20034;SDS011;10178;48.034;9.800;2023-11-22T09:35:12;4.80;;;4.07;;
20034;SDS011;10178;48.034;9.800;2023-11-22T09:37:39;4.90;;;3.80;;
20034;SDS011;10178;48.034;9.800;2023-11-22T09:40:07;5.77;;;3.77;;
20034;SDS011;10178;48.034;9.800;2023-11-22T09:42:34;3.90;;;3.50;;
20034;SDS011;10178;48.034;9.800;2023-11-22T09:45:00;5.00;;;3.90;;
20034;SDS011;10178;48.034;9.800;2023-11-22T09:47:26;3.63;;;3.03;;
20034;SDS011;10178;48.034;9.800;2023-11-22T09:49:54;5.55;;;3.80;;
20034;SDS011;10178;48.034;9.800;2023-11-22T09:52:22;4.37;;;3.27;;
20034;SDS011;10178;48.034;9.800;2023-11-22T09:54:53;3.70;;;3.00;;
20034;SDS011;10178;48.034;9.800;2023-11-22T09:57:20;3.27;;;2.97;;
20034;SDS011;10178;48.034;9.800;2023-11-22T09:59:48;3.78;;;3.17;;
20034;SDS011;10178;48.034;9.800;2023-11-22T10:02:17;6.13;;;3.50;;
20034;SDS011;10178;48.034;9.800;2023-11-22T10:04:43;3.50;;;3.20;;
20034;SDS011;10178;48.034;9.800;2023-11-22T10:07:08;4.50;;;3.43;;
20034;SDS011;10178;48.034;9.800;2023-11-22T10:09:35;4.28;;;3.42;;
20034;SDS011;10178;48.034;9.800;2023-11-22T10:12:03;3.47;;;3.15;;
20034;SDS011;10178;48.034;9.800;2023-11-22T10:14:30;3.50;;;3.17;;
20034;SDS011;10178;48.034;9.800;2023-11-22T10:16:59;4.03;;;3.27;;
20034;SDS011;10178;48.034;9.800;2023-11-22T10:19:25;3.47;;;3.15;;
20034;SDS011;10178;48.034;9.800;2023-11-22T10:22:08;4.60;;;3.72;;
20034;SDS011;10178;48.034;9.800;2023-11-22T10:24:34;4.67;;;3.30;;
20034;SDS011;10178;48.034;9.800;2023-11-22T10:27:01;4.50;;;3.70;;
20034;SDS011;10178;48.034;9.800;2023-11-22T10:29:28;5.30;;;3.97;;
20034;SDS011;10178;48.034;9.800;2023-11-22T10:31:54;4.63;;;3.60;;
20034;SDS011;10178;48.034;9.800;2023-11-22T10:34:21;5.20;;;3.83;;
20034;SDS011;10178;48.034;9.800;2023-11-22T10:36:48;3.58;;;3.05;;
20034;SDS011;10178;48.034;9.800;2023-11-22T10:39:18;5.75;;;4.07;;
20034;SDS011;10178;48.034;9.800;2023-11-22T10:41:45;4.90;;;3.63;;
20034;SDS011;10178;48.034;9.800;2023-11-22T10:44:11;4.88;;;4.03;;
20034;SDS011;10178;48.034;9.800;2023-11-22T10:46:41;5.30;;;3.78;;
20034;SDS011;10178;48.034;9.800;2023-11-22T10:49:10;4.88;;;3.70;;
20034;SDS011;10178;48.034;9.800;2023-11-22T10:51:37;4.65;;;3.67;;
20034;SDS011;10178;48.034;9.800;2023-11-22T10:54:06;4.72;;;3.40;;
20034;SDS011;10178;48.034;9.800;2023-11-22T10:56:36;4.32;;;3.40;;
20034;SDS011;10178;48.034;9.800;2023-11-22T10:59:06;4.05;;;3.47;;
20034;SDS011;10178;48.034;9.800;2023-11-22T11:01:39;4.55;;;3.20;;
20034;SDS011;10178;48.034;9.800;2023-11-22T11:04:39;5.22;;;3.42;;
20034;SDS011;10178;48.034;9.800;2023-11-22T11:07:09;4.90;;;3.60;;
20034;SDS011;10178;48.034;9.800;2023-11-22T11:09:40;4.10;;;3.40;;
20034;SDS011;10178;48.034;9.800;2023-11-22T11:12:07;5.00;;;3.40;;
20034;SDS011;10178;48.034;9.800;2023-11-22T11:14:34;4.50;;;3.42;;
20034;SDS011;10178;48.034;9.800;2023-11-22T11:17:04;5.57;;;4.25;;
20034;SDS011;10178;48.034;9.800;2023-11-22T11:19:31;4.30;;;3.67;;
20034;SDS011;10178;48.034;9.800;2023-11-22T11:21:57;4.50;;;3.58;;
20034;SDS011;10178;48.034;9.800;2023-11-22T11:24:24;4.50;;;3.60;;
20034;SDS011;10178;48.034;9.800;2023-11-22T11:26:50;5.00;;;3.40;;
20034;SDS011;10178;48.034;9.800;2023-11-22T11:29:30;5.35;;;3.75;;
20034;SDS011;10178;48.034;9.800;2023-11-22T11:32:02;4.82;;;3.72;;
20034;SDS011;10178;48.034;9.800;2023-11-22T11:34:34;4.50;;;3.60;;
20034;SDS011;10178;48.034;9.800;2023-11-22T11:37:29;5.95;;;3.60;;
20034;SDS011;10178;48.034;9.800;2023-11-22T11:39:58;5.22;;;3.53;;
20034;SDS011;10178;48.034;9.800;2023-11-22T11:42:25;5.25;;;4.20;;
20034;SDS011;10178;48.034;9.800;2023-11-22T11:45:12;5.97;;;4.10;;
20034;SDS011;10178;48.034;9.800;2023-11-22T11:47:39;5.07;;;3.90;;
20034;SDS011;10178;48.034;9.800;2023-11-22T11:50:08;4.57;;;3.63;;
20034;SDS011;10178;48.034;9.800;2023-11-22T11:52:34;8.52;;;3.85;;
20034;SDS011;10178;48.034;9.800;2023-11-22T11:55:07;4.83;;;3.83;;
20034;SDS011;10178;48.034;9.800;2023-11-22T11:57:33;5.03;;;3.65;;
20034;SDS011;10178;48.034;9.800;2023-11-22T11:59:59;4.82;;;3.90;;
20034;SDS011;10178;48.034;9.800;2023-11-22T12:02:27;7.38;;;5.20;;
20034;SDS011;10178;48.034;9.800;2023-11-22T12:04:52;5.03;;;4.30;;
20034;SDS011;10178;48.034;9.800;2023-11-22T12:07:19;7.07;;;4.35;;
20034;SDS011;10178;48.034;9.800;2023-11-22T12:09:48;6.27;;;4.23;;
20034;SDS011;10178;48.034;9.800;2023-11-22T12:12:16;5.18;;;4.00;;
20034;SDS011;10178;48.034;9.800;2023-11-22T12:14:42;5.88;;;4.53;;
20034;SDS011;10178;48.034;9.800;2023-11-22T12:17:09;4.97;;;3.90;;
20034;SDS011;10178;48.034;9.800;2023-11-22T12:19:35;5.07;;;4.13;;
20034;SDS011;10178;48.034;9.800;2023-11-22T12:22:04;4.45;;;3.63;;
20034;SDS011;10178;48.034;9.800;2023-11-22T12:24:32;4.75;;;3.80;;
20034;SDS011;10178;48.034;9.800;2023-11-22T12:26:59;5.50;;;4.63;;
20034;SDS011;10178;48.034;9.800;2023-11-22T12:29:25;5.05;;;3.90;;
20034;SDS011;10178;48.034;9.800;2023-11-22T12:31:51;5.82;;;4.28;;
20034;SDS011;10178;48.034;9.800;2023-11-22T12:34:22;5.22;;;4.40;;
20034;SDS011;10178;48.034;9.800;2023-11-22T12:36:50;4.90;;;4.03;;
20034;SDS011;10178;48.034;9.800;2023-11-22T12:39:16;5.35;;;4.20;;
20034;SDS011;10178;48.034;9.800;2023-11-22T12:41:49;6.07;;;4.40;;
20034;SDS011;10178;48.034;9.800;2023-11-22T12:44:17;6.22;;;4.45;;
20034;SDS011;10178;48.034;9.800;2023-11-22T12:46:49;4.78;;;4.25;;
20034;SDS011;10178;48.034;9.800;2023-11-22T12:49:29;5.95;;;4.20;;
20034;SDS011;10178;48.034;9.800;2023-11-22T12:51:56;6.78;;;4.63;;
20034;SDS011;10178;48.034;9.800;2023-11-22T12:54:22;5.07;;;4.23;;
20034;SDS011;10178;48.034;9.800;2023-11-22T12:56:51;5.47;;;4.30;;
20034;SDS011;10178;48.034;9.800;2023-11-22T12:59:23;4.97;;;4.17;;
20034;SDS011;10178;48.034;9.800;2023-11-22T13:01:52;5.00;;;4.30;;
20034;SDS011;10178;48.034;9.800;2023-11-22T13:04:19;5.20;;;4.47;;
20034;SDS011;10178;48.034;9.800;2023-11-22T13:06:45;6.15;;;4.22;;
20034;SDS011;10178;48.034;9.800;2023-11-22T13:09:11;5.10;;;3.97;;
20034;SDS011;10178;48.034;9.800;2023-11-22T13:11:43;5.65;;;4.18;;
20034;SDS011;10178;48.034;9.800;2023-11-22T13:14:11;8.43;;;4.80;;
20034;SDS011;10178;48.034;9.800;2023-11-22T13:16:39;5.90;;;4.50;;
20034;SDS011;10178;48.034;9.800;2023-11-22T13:19:05;4.60;;;3.93;;
20034;SDS011;10178;48.034;9.800;2023-11-22T13:21:31;5.65;;;4.53;;
20034;SDS011;10178;48.034;9.800;2023-11-22T13:23:57;6.72;;;4.85;;
20034;SDS011;10178;48.034;9.800;2023-11-22T13:26:24;7.47;;;5.03;;
20034;SDS011;10178;48.034;9.800;2023-11-22T13:28:51;6.28;;;4.85;;
20034;SDS011;10178;48.034;9.800;2023-11-22T13:31:18;6.43;;;4.47;;
20034;SDS011;10178;48.034;9.800;2023-11-22T13:33:43;6.43;;;4.37;;
20034;SDS011;10178;48.034;9.800;2023-11-22T13:36:12;7.03;;;5.07;;
20034;SDS011;10178;48.034;9.800;2023-11-22T13:38:39;5.70;;;4.50;;
20034;SDS011;10178;48.034;9.800;2023-11-22T13:41:05;5.47;;;4.70;;
20034;SDS011;10178;48.034;9.800;2023-11-22T13:43:30;9.43;;;5.40;;
20034;SDS011;10178;48.034;9.800;2023-11-22T13:45:58;7.28;;;5.50;;
20034;SDS011;10178;48.034;9.800;2023-11-22T13:48:23;6.90;;;4.77;;
20034;SDS011;10178;48.034;9.800;2023-11-22T13:50:50;7.90;;;4.82;;
20034;SDS011;10178;48.034;9.800;2023-11-22T13:53:16;6.37;;;4.97;;
20034;SDS011;10178;48.034;9.800;2023-11-22T13:55:46;6.10;;;4.87;;
20034;SDS011;10178;48.034;9.800;2023-11-22T13:58:11;7.03;;;4.80;;
20034;SDS011;10178;48.034;9.800;2023-11-22T14:00:38;6.20;;;4.65;;
20034;SDS011;10178;48.034;9.800;2023-11-22T14:03:04;7.93;;;4.95;;
20034;SDS011;10178;48.034;9.800;2023-11-22T14:05:34;7.57;;;4.65;;
20034;SDS011;10178;48.034;9.800;2023-11-22T14:08:02;8.70;;;4.50;;
20034;SDS011;10178;48.034;9.800;2023-11-22T14:10:29;6.50;;;5.43;;
20034;SDS011;10178;48.034;9.800;2023-11-22T14:12:54;9.10;;;5.77;;
20034;SDS011;10178;48.034;9.800;2023-11-22T14:15:25;6.80;;;5.37;;
20034;SDS011;10178;48.034;9.800;2023-11-22T14:17:51;6.40;;;5.03;;
20034;SDS011;10178;48.034;9.800;2023-11-22T14:20:17;7.07;;;5.37;;
20034;SDS011;10178;48.034;9.800;2023-11-22T14:22:43;7.97;;;5.10;;
20034;SDS011;10178;48.034;9.800;2023-11-22T14:25:09;5.67;;;4.67;;
20034;SDS011;10178;48.034;9.800;2023-11-22T14:27:40;6.80;;;4.95;;
20034;SDS011;10178;48.034;9.800;2023-11-22T14:30:07;7.65;;;5.05;;
20034;SDS011;10178;48.034;9.800;2023-11-22T14:32:35;5.63;;;4.57;;
20034;SDS011;10178;48.034;9.800;2023-11-22T14:35:03;5.93;;;4.82;;
20034;SDS011;10178;48.034;9.800;2023-11-22T14:37:29;5.93;;;4.80;;
20034;SDS011;10178;48.034;9.800;2023-11-22T14:39:56;7.97;;;4.63;;
20034;SDS011;10178;48.034;9.800;2023-11-22T14:42:22;5.60;;;4.47;;
20034;SDS011;10178;48.034;9.800;2023-11-22T14:44:49;8.05;;;4.43;;
20034;SDS011;10178;48.034;9.800;2023-11-22T14:47:16;5.35;;;4.57;;
20034;SDS011;10178;48.034;9.800;2023-11-22T14:49:48;6.90;;;4.47;;